createdAt,value
2019-01-16T00:00:55.236Z,100755.40
2019-01-16T00:03:52.115Z,100750.03
2019-01-16T00:06:46.101Z,100743.78
2019-01-16T00:09:37.115Z,100750.84
2019-01-16T00:12:31.235Z,100753.47
2019-01-16T00:15:22.227Z,100740.96
2019-01-16T00:18:08.613Z,100739.53
2019-01-16T00:20:56.528Z,100743.05
2019-01-16T00:23:43.097Z,100739.03
2019-01-16T00:26:35.638Z,100739.37
2019-01-16T00:29:29.651Z,100735.80
2019-01-16T00:32:10.788Z,100745.91
2019-01-16T00:34:49.366Z,100733.81
2019-01-16T00:37:36.160Z,100735.41
2019-01-16T00:40:19.987Z,100731.86
2019-01-16T00:43:26.091Z,100734.91
2019-01-16T00:46:16.753Z,100720.27
2019-01-16T00:49:13.884Z,100722.59
2019-01-16T00:52:00.447Z,100720.75
2019-01-16T00:54:55.251Z,100732.08
2019-01-16T00:58:01.180Z,100738.53
2019-01-16T01:00:39.067Z,100726.61
2019-01-16T01:03:25.140Z,100720.86
2019-01-16T01:06:01.494Z,100726.00
2019-01-16T01:08:55.762Z,100723.81
2019-01-16T01:11:53.638Z,100729.04
2019-01-16T01:14:31.642Z,100734.80
2019-01-16T01:17:22.417Z,100737.42
2019-01-16T01:20:09.791Z,100732.47
2019-01-16T01:22:45.528Z,100732.22
2019-01-16T01:25:29.539Z,100740.09
2019-01-16T01:28:16.183Z,100736.49
2019-01-16T01:31:02.784Z,100731.61
2019-01-16T01:34:01.528Z,100736.55
2019-01-16T01:36:44.635Z,100734.03
2019-01-16T01:39:35.579Z,100727.31
2019-01-16T01:42:27.578Z,100733.92
2019-01-16T01:45:15.833Z,100726.66
2019-01-16T01:48:01.509Z,100733.53
2019-01-16T01:50:58.288Z,100740.73
2019-01-16T01:53:52.256Z,100739.73
2019-01-16T01:56:38.829Z,100734.17
2019-01-16T01:59:35.579Z,100726.53
2019-01-16T02:02:11.220Z,100736.02
2019-01-16T02:04:51.974Z,100729.34
2019-01-16T02:07:39.923Z,100735.66
2019-01-16T02:10:18.616Z,100727.78
2019-01-16T02:13:09.458Z,100731.61
2019-01-16T02:16:00.071Z,100719.74
2019-01-16T02:18:50.790Z,100721.05
2019-01-16T02:21:36.986Z,100730.66
2019-01-16T02:24:29.063Z,100720.41
2019-01-16T02:27:29.141Z,100727.67
2019-01-16T02:30:09.674Z,100724.04
2019-01-16T02:33:03.743Z,100715.97
2019-01-16T02:35:49.743Z,100723.38
2019-01-16T02:38:32.113Z,100723.38
2019-01-16T02:41:19.277Z,100719.09
2019-01-16T02:44:13.369Z,100713.44
2019-01-16T02:46:56.380Z,100710.50
2019-01-16T02:49:42.684Z,100713.80
2019-01-16T02:52:23.659Z,100695.12
2019-01-16T02:55:10.220Z,100702.99
2019-01-16T02:58:02.118Z,100705.31
2019-01-16T03:00:41.672Z,100706.98
2019-01-16T03:03:28.302Z,100693.86
2019-01-16T03:06:14.438Z,100692.91
2019-01-16T03:08:52.558Z,100699.36
2019-01-16T03:11:30.091Z,100693.86
2019-01-16T03:14:30.122Z,100683.51
2019-01-16T03:17:18.066Z,100686.85
2019-01-16T03:20:20.966Z,100684.98
2019-01-16T03:23:07.003Z,100677.97
2019-01-16T03:25:44.278Z,100671.20
2019-01-16T03:28:21.224Z,100667.67
2019-01-16T03:31:09.204Z,100662.31
2019-01-16T03:34:14.986Z,100656.31
2019-01-16T03:37:04.778Z,100658.07
2019-01-16T03:39:49.056Z,100653.27
2019-01-16T03:42:36.986Z,100650.87
2019-01-16T03:45:32.390Z,100643.80
2019-01-16T03:48:14.102Z,100646.56
2019-01-16T03:51:11.194Z,100642.69
2019-01-16T03:53:50.008Z,100641.23
2019-01-16T03:56:31.620Z,100632.75
2019-01-16T03:59:28.336Z,100639.22
2019-01-16T04:02:25.146Z,100635.17
2019-01-16T04:05:11.795Z,100631.84
2019-01-16T04:07:58.346Z,100619.03
2019-01-16T04:10:46.239Z,100622.35
2019-01-16T04:13:32.091Z,100628.11
2019-01-16T04:16:20.003Z,100618.61
2019-01-16T04:19:06.278Z,100624.26
2019-01-16T04:22:06.207Z,100616.30
2019-01-16T04:24:51.710Z,100615.80
2019-01-16T04:27:38.338Z,100607.31
2019-01-16T04:30:32.572Z,100605.49
2019-01-16T04:33:23.528Z,100603.37
2019-01-16T04:36:09.878Z,100592.67
2019-01-16T04:39:03.603Z,100595.39
2019-01-16T04:41:38.995Z,100594.59
2019-01-16T04:44:25.304Z,100601.25
2019-01-16T04:47:11.854Z,100596.41
2019-01-16T04:49:58.627Z,100598.78
2019-01-16T04:52:43.010Z,100600.30
2019-01-16T04:55:29.623Z,100594.02
2019-01-16T04:58:10.841Z,100602.20
2019-01-16T05:01:01.528Z,100596.34
2019-01-16T05:04:07.292Z,100590.09
2019-01-16T05:06:56.778Z,100593.11
2019-01-16T05:09:39.449Z,100582.02
2019-01-16T05:12:34.924Z,100586.95
2019-01-16T05:15:13.724Z,100581.36
2019-01-16T05:18:07.033Z,100583.42
2019-01-16T05:20:53.557Z,100583.62
2019-01-16T05:23:37.300Z,100576.66
2019-01-16T05:26:14.095Z,100570.91
2019-01-16T05:29:11.499Z,100577.58
2019-01-16T05:31:57.840Z,100577.25
2019-01-16T05:34:52.682Z,100577.78
2019-01-16T05:37:55.761Z,100565.16
2019-01-16T05:40:48.791Z,100562.73
2019-01-16T05:43:36.759Z,100562.23
2019-01-16T05:46:36.626Z,100566.47
2019-01-16T05:49:18.012Z,100559.30
2019-01-16T05:52:08.809Z,100554.27
2019-01-16T05:54:56.947Z,100553.06
2019-01-16T05:57:44.860Z,100545.89
2019-01-16T06:00:33.497Z,100545.39
2019-01-16T06:03:33.406Z,100544.88
2019-01-16T06:06:33.407Z,100545.19
2019-01-16T06:09:20.007Z,100540.14
2019-01-16T06:12:17.056Z,100538.43
2019-01-16T06:15:03.896Z,100539.73
2019-01-16T06:18:01.837Z,100545.80
2019-01-16T06:21:07.705Z,100539.84
2019-01-16T06:23:54.087Z,100538.52
2019-01-16T06:26:40.630Z,100541.39
2019-01-16T06:29:34.532Z,100526.66
2019-01-16T06:32:22.588Z,100532.52
2019-01-16T06:35:10.460Z,100540.70
2019-01-16T06:38:08.012Z,100528.68
2019-01-16T06:41:03.822Z,100524.23
2019-01-16T06:43:49.566Z,100522.92
2019-01-16T06:46:55.819Z,100531.55
2019-01-16T06:49:30.503Z,100527.70
2019-01-16T06:52:05.682Z,100524.17
2019-01-16T06:54:49.474Z,100524.84
2019-01-16T06:57:49.493Z,100515.45
2019-01-16T07:00:36.120Z,100522.73
2019-01-16T07:03:29.007Z,100523.53
2019-01-16T07:06:22.705Z,100527.37
2019-01-16T07:09:13.610Z,100522.02
2019-01-16T07:12:04.551Z,100525.45
2019-01-16T07:14:44.247Z,100523.03
2019-01-16T07:17:24.661Z,100522.82
2019-01-16T07:20:11.053Z,100525.25
2019-01-16T07:23:05.027Z,100519.19
2019-01-16T07:25:54.090Z,100521.91
2019-01-16T07:28:42.060Z,100522.92
2019-01-16T07:31:32.770Z,100525.34
2019-01-16T07:34:09.745Z,100518.68
2019-01-16T07:36:49.701Z,100514.05
2019-01-16T07:39:35.794Z,100511.62
2019-01-16T07:42:19.718Z,100516.66
2019-01-16T07:45:10.449Z,100518.17
2019-01-16T07:47:48.707Z,100519.48
2019-01-16T07:50:39.431Z,100508.80
2019-01-16T07:53:17.056Z,100519.50
2019-01-16T07:55:57.117Z,100502.44
2019-01-16T07:58:43.483Z,100515.56
2019-01-16T08:01:29.819Z,100515.86
2019-01-16T08:04:29.306Z,100509.70
2019-01-16T08:07:17.262Z,100503.75
2019-01-16T08:10:07.970Z,100511.72
2019-01-16T08:12:56.343Z,100511.55
2019-01-16T08:15:44.232Z,100507.48
2019-01-16T08:18:28.186Z,100504.99
2019-01-16T08:21:21.902Z,100504.99
2019-01-16T08:23:58.532Z,100496.51
2019-01-16T08:26:49.540Z,100489.34
2019-01-16T08:29:35.892Z,100484.19
2019-01-16T08:32:19.374Z,100487.92
2019-01-16T08:35:10.342Z,100492.57
2019-01-16T08:37:56.738Z,100496.41
2019-01-16T08:40:50.783Z,100485.60
2019-01-16T08:43:24.905Z,100484.19
2019-01-16T08:46:11.236Z,100481.56
2019-01-16T08:49:05.005Z,100492.97
2019-01-16T08:51:51.528Z,100486.09
2019-01-16T08:54:42.422Z,100491.25
2019-01-16T08:57:36.159Z,100487.13
2019-01-16T09:00:25.506Z,100482.56
2019-01-16T09:03:03.997Z,100481.08
2019-01-16T09:06:01.448Z,100472.06
2019-01-16T09:08:49.445Z,100477.03
2019-01-16T09:11:32.038Z,100469.25
2019-01-16T09:14:24.707Z,100467.63
2019-01-16T09:17:11.073Z,100465.81
2019-01-16T09:20:05.853Z,100458.14
2019-01-16T09:22:53.828Z,100458.65
2019-01-16T09:25:40.496Z,100450.67
2019-01-16T09:28:20.135Z,100448.06
2019-01-16T09:31:02.653Z,100448.97
2019-01-16T09:33:50.625Z,100455.62
2019-01-16T09:36:37.487Z,100446.55
2019-01-16T09:39:35.019Z,100450.37
2019-01-16T09:42:21.940Z,100443.52
2019-01-16T09:45:09.941Z,100435.84
2019-01-16T09:47:57.366Z,100437.55
2019-01-16T09:50:48.228Z,100438.77
2019-01-16T09:53:34.623Z,100444.72
2019-01-16T09:56:31.865Z,100451.78
2019-01-16T09:59:59.944Z,100438.97
2019-01-16T10:05:41.592Z,100439.08
2019-01-16T10:09:01.961Z,100438.06
2019-01-16T10:11:50.458Z,100430.48
2019-01-16T10:14:32.958Z,100436.36
2019-01-16T10:17:20.869Z,100428.06
2019-01-16T10:20:07.579Z,100427.95
2019-01-16T10:23:08.742Z,100419.95
2019-01-16T10:25:51.878Z,100415.09
2019-01-16T10:28:44.621Z,100419.45
2019-01-16T10:31:36.324Z,100413.59
2019-01-16T10:38:03.022Z,100413.80
2019-01-16T10:40:53.899Z,100405.92
2019-01-16T10:43:50.636Z,100408.64
2019-01-16T10:46:35.193Z,100408.73
2019-01-16T10:49:25.843Z,100397.13
2019-01-16T10:52:04.693Z,100393.72
2019-01-16T10:54:55.768Z,100390.58
2019-01-16T10:57:52.514Z,100387.05
2019-01-16T11:00:44.999Z,100388.58
2019-01-16T11:03:34.055Z,100386.75
2019-01-16T11:06:22.060Z,100376.34
2019-01-16T11:08:59.380Z,100382.59
2019-01-16T11:11:43.291Z,100373.41
2019-01-16T11:14:40.362Z,100366.23
2019-01-16T11:17:31.314Z,100367.45
2019-01-16T11:20:37.187Z,100369.48
2019-01-16T11:23:33.068Z,100360.59
2019-01-16T11:26:12.318Z,100357.66
2019-01-16T11:29:06.272Z,100359.09
2019-01-16T11:31:52.551Z,100347.78
2019-01-16T11:34:38.948Z,100352.94
2019-01-16T11:37:20.849Z,100359.29
2019-01-16T11:40:07.415Z,100342.41
2019-01-16T11:42:48.195Z,100350.91
2019-01-16T11:45:23.904Z,100333.44
2019-01-16T11:48:21.588Z,100336.08
2019-01-16T11:51:07.164Z,100342.23
2019-01-16T11:53:53.848Z,100324.56
2019-01-16T11:56:36.796Z,100324.03
2019-01-16T11:59:17.975Z,100318.60
2019-01-16T12:02:08.910Z,100307.09
2019-01-16T12:04:59.560Z,100305.48
2019-01-16T12:07:50.235Z,100314.69
2019-01-16T12:10:32.413Z,100308.81
2019-01-16T12:13:23.121Z,100298.62
2019-01-16T12:16:22.979Z,100295.16
2019-01-16T12:19:25.777Z,100286.45
2019-01-16T12:22:25.604Z,100276.88
2019-01-16T12:25:20.212Z,100280.72
2019-01-16T12:28:26.022Z,100270.13
2019-01-16T12:31:03.315Z,100267.09
2019-01-16T12:33:49.683Z,100262.64
2019-01-16T12:36:31.434Z,100265.45
2019-01-16T12:39:19.510Z,100261.63
2019-01-16T12:42:06.225Z,100257.48
2019-01-16T12:48:15.685Z,100244.05
2019-01-16T12:51:03.642Z,100249.39
2019-01-16T12:53:55.760Z,100241.13
2019-01-16T12:56:55.545Z,100245.19
2019-01-16T12:59:38.587Z,100247.55
2019-01-16T13:02:35.340Z,100239.38
2019-01-16T13:05:26.331Z,100244.50
2019-01-16T13:08:22.759Z,100239.40
2019-01-16T13:11:13.251Z,100232.63
2019-01-16T13:14:00.716Z,100255.34
2019-01-16T13:16:55.215Z,100233.94
2019-01-16T13:19:34.138Z,100233.44
2019-01-16T13:22:38.709Z,100238.30
2019-01-16T13:25:26.664Z,100227.41
2019-01-16T13:28:12.982Z,100227.80
2019-01-16T13:30:57.872Z,100223.14
2019-01-16T13:33:47.221Z,100211.03
2019-01-16T13:36:26.326Z,100212.05
2019-01-16T13:39:17.284Z,100211.66
2019-01-16T13:42:02.147Z,100203.49
2019-01-16T13:44:55.973Z,100203.97
2019-01-16T13:47:46.763Z,100206.00
2019-01-16T13:50:43.602Z,100210.44
2019-01-16T13:53:43.373Z,100212.34
2019-01-16T13:59:42.487Z,100198.93
2019-01-16T14:02:28.726Z,100204.59
2019-01-16T14:05:19.493Z,100208.83
2019-01-16T14:08:05.855Z,100198.75
2019-01-16T14:10:49.511Z,100205.49
2019-01-16T14:13:43.523Z,100209.04
2019-01-16T14:16:29.954Z,100196.31
2019-01-16T14:19:16.522Z,100194.99
2019-01-16T14:22:03.196Z,100198.12
2019-01-16T14:24:53.598Z,100187.84
2019-01-16T14:27:44.223Z,100185.01
2019-01-16T14:30:33.550Z,100183.28
2019-01-16T14:33:21.424Z,100180.05
2019-01-16T14:36:12.194Z,100167.53
2019-01-16T14:42:39.785Z,100169.09
2019-01-16T14:45:45.583Z,100173.95
2019-01-16T14:48:39.309Z,100185.03
2019-01-16T14:51:28.254Z,100176.47
2019-01-16T14:54:28.198Z,100166.99
2019-01-16T14:57:28.096Z,100170.33
2019-01-16T15:00:22.063Z,100170.06
2019-01-16T15:03:18.834Z,100165.73
2019-01-16T15:06:12.553Z,100163.91
2019-01-16T15:09:02.025Z,100151.99
2019-01-16T15:11:46.058Z,100146.36
2019-01-16T15:14:27.212Z,100161.10
2019-01-16T15:17:13.936Z,100144.56
2019-01-16T15:20:00.239Z,100144.36
2019-01-16T15:22:44.106Z,100142.95
2019-01-16T15:25:27.285Z,100148.70
2019-01-16T15:28:04.459Z,100142.86
2019-01-16T15:30:53.111Z,100144.25
2019-01-16T15:33:33.579Z,100134.98
2019-01-16T15:36:31.414Z,100137.22
2019-01-16T15:39:08.712Z,100128.34
2019-01-16T15:42:20.302Z,100139.13
2019-01-16T15:45:20.176Z,100133.58
2019-01-16T15:48:26.287Z,100123.09
2019-01-16T15:51:25.819Z,100135.91
2019-01-16T15:54:16.814Z,100130.04
2019-01-16T15:57:08.475Z,100131.87
2019-01-16T15:59:56.976Z,100120.70
2019-01-16T16:05:36.938Z,100116.86
2019-01-16T16:08:25.450Z,100118.38
2019-01-16T16:11:04.369Z,100118.27
2019-01-16T16:14:00.996Z,100116.27
2019-01-16T16:16:43.742Z,100105.78
2019-01-16T16:19:43.925Z,100109.61
2019-01-16T16:22:30.711Z,100114.56
2019-01-16T16:25:16.625Z,100111.25
2019-01-16T16:28:03.341Z,100110.92
2019-01-16T16:30:40.229Z,100120.59
2019-01-16T16:33:27.057Z,100101.95
2019-01-16T16:36:13.648Z,100091.28
2019-01-16T16:39:00.018Z,100078.50
2019-01-16T16:41:48.017Z,100069.03
2019-01-16T16:44:35.927Z,100063.98
2019-01-16T16:47:27.903Z,100068.02
2019-01-16T16:50:09.789Z,100073.86
2019-01-16T16:52:57.715Z,100068.22
2019-01-16T16:55:44.074Z,100068.81
2019-01-16T16:58:35.131Z,100073.25
2019-01-16T17:01:21.871Z,100060.47
2019-01-16T17:07:37.309Z,100058.74
2019-01-16T17:10:32.456Z,100058.23
2019-01-16T17:13:22.961Z,100053.11
2019-01-16T17:16:10.841Z,100045.44
2019-01-16T17:18:59.146Z,100034.96
2019-01-16T17:21:45.444Z,100025.01
2019-01-16T17:28:10.733Z,100029.33
2019-01-16T17:31:00.164Z,100031.84
2019-01-16T17:33:46.796Z,100034.66
2019-01-16T17:36:33.499Z,100022.37
2019-01-16T17:39:13.706Z,100020.37
2019-01-16T17:42:10.638Z,100014.19
2019-01-16T17:45:04.616Z,100014.90
2019-01-16T17:47:48.062Z,100013.98
2019-01-16T17:50:29.909Z,100016.33
2019-01-16T17:53:17.844Z,99991.55
2019-01-16T17:56:08.323Z,99997.80
2019-01-16T17:58:54.823Z,99975.92
2019-01-16T18:01:41.352Z,99971.88
2019-01-16T18:04:27.778Z,99975.66
2019-01-16T18:07:30.912Z,99970.41
2019-01-16T18:10:17.607Z,99966.48
2019-01-16T18:13:00.575Z,99968.89
2019-01-16T18:15:54.572Z,99966.98
2019-01-16T18:19:01.287Z,99961.77
2019-01-16T18:21:49.386Z,99970.13
2019-01-16T18:24:49.251Z,99962.58
2019-01-16T18:27:40.213Z,99965.38
2019-01-16T18:30:30.080Z,99962.07
2019-01-16T18:33:38.700Z,99954.19
2019-01-16T18:36:26.666Z,99960.64
2019-01-16T18:39:12.901Z,99955.80
2019-01-16T18:42:03.847Z,99940.37
2019-01-16T18:44:57.794Z,99934.66
2019-01-16T18:47:44.310Z,99946.56
2019-01-16T18:50:30.268Z,99934.77
2019-01-16T18:53:36.146Z,99929.63
2019-01-16T18:56:17.889Z,99933.03
2019-01-16T18:59:08.477Z,99932.34
2019-01-16T19:01:59.260Z,99919.84
2019-01-16T19:04:45.856Z,99922.16
2019-01-16T19:07:32.491Z,99919.16
2019-01-16T19:10:08.643Z,99904.16
2019-01-16T19:12:55.506Z,99908.71
2019-01-16T19:15:38.941Z,99908.08
2019-01-16T19:18:22.354Z,99901.84
2019-01-16T19:21:13.906Z,99903.48
2019-01-16T19:24:14.041Z,99910.70
2019-01-16T19:27:00.647Z,99895.84
2019-01-16T19:29:56.865Z,99891.84
2019-01-16T19:32:56.960Z,99896.88
2019-01-16T19:35:34.962Z,99893.95
2019-01-16T19:38:23.168Z,99892.83
2019-01-16T19:41:09.647Z,99892.14
2019-01-16T19:43:56.215Z,99893.84
2019-01-16T19:46:42.376Z,99880.07
2019-01-16T19:49:33.431Z,99889.92
2019-01-16T19:52:21.579Z,99874.21
2019-01-16T19:55:09.818Z,99871.80
2019-01-16T19:57:49.542Z,99862.83
2019-01-16T20:00:52.987Z,99863.95
2019-01-16T20:03:53.163Z,99862.02
2019-01-16T20:10:24.076Z,99848.06
2019-01-16T20:13:15.153Z,99837.39
2019-01-16T20:15:55.020Z,99839.02
2019-01-16T20:18:36.590Z,99836.19
2019-01-16T20:21:24.751Z,99821.39
2019-01-16T20:24:13.381Z,99830.55
2019-01-16T20:27:00.126Z,99838.81
2019-01-16T20:29:57.307Z,99825.52
2019-01-16T20:32:51.450Z,99817.77
2019-01-16T20:35:31.963Z,99813.33
2019-01-16T20:38:26.244Z,99804.94
2019-01-16T20:41:22.695Z,99802.69
2019-01-16T20:44:02.194Z,99806.28
2019-01-16T20:46:45.232Z,99803.45
2019-01-16T20:49:25.740Z,99797.03
2019-01-16T20:52:31.691Z,99796.20
2019-01-16T20:55:19.834Z,99793.41
2019-01-16T20:58:14.196Z,99786.06
2019-01-16T21:00:58.817Z,99789.39
2019-01-16T21:03:45.435Z,99781.16
2019-01-16T21:07:17.224Z,99771.28
2019-01-16T21:10:03.962Z,99774.49
2019-01-16T21:12:50.743Z,99764.53
2019-01-16T21:15:38.813Z,99763.22
2019-01-16T21:18:35.848Z,99760.02
2019-01-16T21:21:22.735Z,99760.31
2019-01-16T21:24:09.587Z,99756.09
2019-01-16T21:27:00.366Z,99728.02
2019-01-16T21:29:46.951Z,99736.20
2019-01-16T21:32:43.790Z,99738.31
2019-01-16T21:35:36.396Z,99740.25
2019-01-16T21:38:22.782Z,99728.59
2019-01-16T21:41:09.241Z,99724.05
2019-01-16T21:44:06.167Z,99711.05
2019-01-16T21:46:54.273Z,99717.20
2019-01-16T21:49:37.902Z,99709.33
2019-01-16T21:52:38.074Z,99704.00
2019-01-16T21:55:29.268Z,99706.83
2019-01-16T21:58:23.224Z,99689.83
2019-01-16T22:01:10.002Z,99685.19
2019-01-16T22:04:01.060Z,99686.20
2019-01-16T22:06:46.330Z,99685.02
2019-01-16T22:10:01.457Z,99682.11
2019-01-16T22:12:55.547Z,99677.97
2019-01-16T22:15:42.091Z,99673.37
2019-01-16T22:18:45.271Z,99667.25
2019-01-16T22:21:36.028Z,99658.59
2019-01-16T22:27:27.151Z,99658.48
2019-01-16T22:30:07.208Z,99653.03
2019-01-16T22:36:31.582Z,99643.89
2019-01-16T22:39:18.285Z,99631.92
2019-01-16T22:42:04.939Z,99639.66
2019-01-16T22:44:46.962Z,99631.81
2019-01-16T22:47:34.888Z,99626.00
2019-01-16T22:50:19.927Z,99628.91
2019-01-16T22:53:15.334Z,99623.21
2019-01-16T22:56:01.648Z,99634.74
2019-01-16T22:58:49.595Z,99617.95
2019-01-16T23:01:23.450Z,99610.53
2019-01-16T23:04:10.148Z,99622.30
2019-01-16T23:07:05.291Z,99614.23
2019-01-16T23:10:02.148Z,99609.80
2019-01-16T23:12:55.934Z,99611.63
2019-01-16T23:15:41.915Z,99618.25
2019-01-16T23:18:47.674Z,99612.94
2019-01-16T23:21:33.892Z,99614.54
2019-01-16T23:24:30.672Z,99608.33
2019-01-16T23:27:30.521Z,99599.48
2019-01-16T23:30:08.152Z,99601.59
2019-01-16T23:32:45.025Z,99598.67
2019-01-16T23:35:31.654Z,99600.11
2019-01-16T23:38:16.558Z,99594.38
2019-01-16T23:41:02.965Z,99599.99
2019-01-16T23:43:56.836Z,99597.29
2019-01-16T23:46:42.340Z,99582.52
2019-01-16T23:49:36.168Z,99573.66
2019-01-16T23:52:11.367Z,99580.80
2019-01-16T23:54:59.356Z,99567.89
2019-01-16T23:57:42.338Z,99570.42
